createdAt,value
2018-07-31T00:02:21.559Z,55.80
2018-07-31T00:04:51.473Z,56.10
2018-07-31T00:07:20.455Z,56.50
2018-07-31T00:09:49.401Z,56.40
2018-07-31T00:12:18.584Z,56.70
2018-07-31T00:14:47.649Z,56.90
2018-07-31T00:17:16.817Z,57.30
2018-07-31T00:19:46.033Z,57.20
2018-07-31T00:22:15.301Z,57.30
2018-07-31T00:24:44.709Z,57.10
2018-07-31T00:27:13.818Z,57.10
2018-07-31T00:29:42.808Z,57.10
2018-07-31T00:32:12.127Z,57.00
2018-07-31T00:34:41.227Z,57.20
2018-07-31T00:37:10.288Z,57.20
2018-07-31T00:39:39.577Z,57.30
2018-07-31T00:42:08.605Z,57.60
2018-07-31T00:44:37.655Z,57.60
2018-07-31T00:47:06.855Z,57.70
2018-07-31T00:49:36.344Z,57.80
2018-07-31T00:52:05.465Z,58.00
2018-07-31T00:54:34.541Z,58.30
2018-07-31T00:57:03.697Z,58.50
2018-07-31T00:59:32.749Z,58.90
2018-07-31T01:02:01.838Z,59.10
2018-07-31T01:04:30.850Z,59.30
2018-07-31T01:06:59.721Z,59.50
2018-07-31T01:09:28.681Z,59.70
2018-07-31T01:11:57.812Z,59.90
2018-07-31T01:14:26.815Z,60.40
2018-07-31T01:16:56.006Z,60.90
2018-07-31T01:19:25.107Z,61.20
2018-07-31T01:21:54.201Z,61.70
2018-07-31T01:24:23.181Z,62.20
2018-07-31T01:26:52.529Z,62.80
2018-07-31T01:29:21.473Z,63.20
2018-07-31T01:31:50.433Z,64.40
2018-07-31T01:34:20.082Z,65.00
2018-07-31T01:36:49.028Z,65.40
2018-07-31T01:39:18.106Z,65.50
2018-07-31T01:41:47.224Z,66.00
2018-07-31T01:44:16.139Z,66.20
2018-07-31T01:46:45.351Z,67.10
2018-07-31T01:49:14.413Z,66.50
2018-07-31T01:51:43.545Z,66.60
2018-07-31T01:54:12.585Z,66.60
2018-07-31T01:56:41.594Z,66.90
2018-07-31T01:59:10.624Z,67.10
2018-07-31T02:01:39.663Z,66.90
2018-07-31T02:04:08.589Z,67.40
2018-07-31T02:06:37.556Z,68.30
2018-07-31T02:09:08.004Z,67.70
2018-07-31T02:11:37.300Z,67.80
2018-07-31T02:14:06.390Z,68.10
2018-07-31T02:16:35.578Z,68.30
2018-07-31T02:19:04.622Z,68.40
2018-07-31T02:21:33.773Z,68.40
2018-07-31T02:24:02.877Z,68.60
2018-07-31T02:26:31.838Z,68.50
2018-07-31T02:29:01.120Z,68.70
2018-07-31T02:31:30.204Z,68.80
2018-07-31T02:33:59.239Z,69.30
2018-07-31T02:36:28.462Z,70.40
2018-07-31T02:38:57.658Z,71.10
2018-07-31T02:41:27.065Z,71.50
2018-07-31T02:43:56.116Z,71.70
2018-07-31T02:46:25.221Z,72.20
2018-07-31T02:48:55.368Z,72.70
2018-07-31T02:51:24.670Z,73.00
2018-07-31T02:53:53.620Z,73.60
2018-07-31T02:56:22.815Z,73.70
2018-07-31T02:58:52.050Z,73.80
2018-07-31T03:01:21.330Z,74.10
2018-07-31T03:03:50.545Z,74.30
2018-07-31T03:06:19.727Z,74.10
2018-07-31T03:08:48.909Z,73.70
2018-07-31T03:11:18.536Z,72.20
2018-07-31T03:13:47.701Z,71.60
2018-07-31T03:16:16.901Z,71.20
2018-07-31T03:18:45.897Z,70.90
2018-07-31T03:21:14.886Z,71.10
2018-07-31T03:23:44.138Z,71.30
2018-07-31T03:26:13.023Z,71.80
2018-07-31T03:28:42.188Z,72.40
2018-07-31T03:31:11.301Z,73.50
2018-07-31T03:33:40.458Z,73.70
2018-07-31T03:36:10.091Z,74.00
2018-07-31T03:38:39.269Z,74.50
2018-07-31T03:41:08.444Z,75.10
2018-07-31T03:43:37.617Z,75.40
2018-07-31T03:46:06.750Z,75.80
2018-07-31T03:48:36.085Z,76.10
2018-07-31T03:51:05.032Z,76.30
2018-07-31T03:53:34.020Z,76.40
2018-07-31T03:56:02.931Z,77.10
2018-07-31T03:58:32.017Z,77.20
2018-07-31T04:01:01.153Z,77.20
2018-07-31T04:03:30.436Z,77.30
2018-07-31T04:05:59.502Z,77.60
2018-07-31T04:08:28.641Z,78.30
2018-07-31T04:10:57.602Z,78.70
2018-07-31T04:13:26.801Z,78.60
2018-07-31T04:15:55.874Z,78.10
2018-07-31T04:18:24.863Z,78.30
2018-07-31T04:20:53.993Z,78.20
2018-07-31T04:23:23.100Z,77.70
2018-07-31T04:25:52.062Z,77.60
2018-07-31T04:28:21.033Z,77.50
2018-07-31T04:30:50.149Z,77.30
2018-07-31T04:33:19.215Z,76.70
2018-07-31T04:35:48.356Z,76.90
2018-07-31T04:38:17.546Z,75.40
2018-07-31T04:40:46.509Z,74.80
2018-07-31T04:43:15.615Z,71.50
2018-07-31T04:45:44.902Z,69.50
2018-07-31T04:48:13.915Z,66.10
2018-07-31T04:50:42.878Z,63.10
2018-07-31T04:53:11.903Z,61.20
2018-07-31T04:55:41.017Z,58.10
2018-07-31T04:58:10.117Z,56.50
2018-07-31T05:00:39.159Z,55.40
2018-07-31T05:03:08.284Z,54.10
2018-07-31T05:05:37.478Z,54.10
2018-07-31T05:08:06.667Z,54.70
2018-07-31T05:10:36.083Z,54.50
2018-07-31T05:13:05.246Z,54.20
2018-07-31T05:15:34.433Z,54.30
2018-07-31T05:18:03.640Z,55.40
2018-07-31T05:20:32.623Z,56.30
2018-07-31T05:23:01.752Z,56.90
2018-07-31T05:25:30.713Z,57.80
2018-07-31T05:27:59.705Z,58.50
2018-07-31T05:30:28.722Z,58.70
2018-07-31T05:32:57.898Z,58.40
2018-07-31T05:35:33.157Z,58.90
2018-07-31T05:38:02.330Z,58.10
2018-07-31T05:40:31.514Z,58.40
2018-07-31T05:43:00.519Z,57.70
2018-07-31T05:45:29.823Z,55.80
2018-07-31T05:47:58.922Z,53.50
2018-07-31T05:50:28.021Z,51.20
2018-07-31T05:52:57.096Z,49.00
2018-07-31T05:55:26.115Z,46.90
2018-07-31T05:57:55.086Z,45.70
2018-07-31T06:00:24.294Z,43.30
2018-07-31T06:02:53.296Z,41.70
2018-07-31T06:05:22.148Z,40.10
2018-07-31T06:07:51.135Z,39.00
2018-07-31T06:10:20.164Z,39.40
2018-07-31T06:12:49.258Z,40.10
2018-07-31T06:15:18.838Z,39.50
2018-07-31T06:17:47.937Z,39.00
2018-07-31T06:20:17.443Z,38.00
2018-07-31T06:22:47.832Z,37.70
2018-07-31T06:25:16.775Z,38.00
2018-07-31T06:27:45.955Z,39.10
2018-07-31T06:30:15.534Z,40.40
2018-07-31T06:32:44.980Z,41.90
2018-07-31T06:35:13.961Z,43.00
2018-07-31T06:37:43.208Z,43.80
2018-07-31T06:40:12.145Z,44.90
2018-07-31T06:42:41.621Z,46.80
2018-07-31T06:45:10.789Z,47.50
2018-07-31T06:47:39.900Z,48.20
2018-07-31T06:50:08.953Z,49.00
2018-07-31T06:52:38.148Z,50.10
2018-07-31T06:55:07.628Z,50.60
2018-07-31T06:57:36.745Z,51.10
2018-07-31T07:00:06.341Z,51.30
2018-07-31T07:02:35.544Z,51.20
2018-07-31T07:05:04.730Z,50.30
2018-07-31T07:07:33.719Z,49.20
2018-07-31T07:10:02.678Z,48.70
2018-07-31T07:12:31.909Z,47.90
2018-07-31T07:15:01.066Z,47.00
2018-07-31T07:17:30.236Z,46.30
2018-07-31T07:19:59.402Z,46.20
2018-07-31T07:22:28.715Z,46.40
2018-07-31T07:24:57.858Z,46.60
2018-07-31T07:27:27.006Z,46.70
2018-07-31T07:29:56.053Z,46.40
2018-07-31T07:32:25.341Z,45.60
2018-07-31T07:34:54.509Z,44.70
2018-07-31T07:37:23.854Z,43.80
2018-07-31T07:39:53.121Z,43.50
2018-07-31T07:42:22.596Z,42.50
2018-07-31T07:44:52.184Z,41.50
2018-07-31T07:47:21.140Z,40.80
2018-07-31T07:49:50.246Z,40.10
2018-07-31T07:52:19.524Z,39.00
2018-07-31T07:54:48.537Z,38.80
2018-07-31T07:57:17.653Z,38.50
2018-07-31T07:59:46.769Z,38.30
2018-07-31T08:02:16.025Z,38.00
2018-07-31T08:04:45.098Z,37.90
2018-07-31T08:07:14.123Z,37.90
2018-07-31T08:09:43.146Z,37.90
2018-07-31T08:14:41.419Z,35.50
2018-07-31T08:17:10.477Z,33.90
2018-07-31T08:19:39.622Z,33.00
2018-07-31T08:22:08.656Z,32.60
2018-07-31T08:24:37.910Z,32.60
2018-07-31T08:27:07.366Z,32.90
2018-07-31T08:29:36.459Z,32.90
2018-07-31T08:32:05.776Z,32.70
2018-07-31T08:34:34.981Z,33.10
2018-07-31T08:37:04.011Z,32.60
2018-07-31T08:39:33.241Z,32.60
2018-07-31T08:42:02.352Z,33.10
2018-07-31T08:44:31.591Z,33.40
2018-07-31T08:47:01.422Z,33.00
2018-07-31T08:49:31.048Z,31.90
2018-07-31T08:52:00.410Z,30.90
2018-07-31T08:54:29.663Z,30.40
2018-07-31T08:56:59.145Z,29.80
2018-07-31T08:59:28.343Z,29.80
2018-07-31T09:01:57.940Z,29.30
2018-07-31T09:04:27.067Z,28.90
2018-07-31T09:06:56.217Z,28.70
2018-07-31T09:09:25.769Z,27.80
2018-07-31T09:11:54.993Z,26.90
2018-07-31T09:14:24.141Z,26.20
2018-07-31T09:16:53.127Z,25.80
2018-07-31T09:19:22.205Z,25.00
2018-07-31T09:21:51.238Z,24.30
2018-07-31T09:24:20.346Z,23.80
2018-07-31T09:26:49.441Z,23.50
2018-07-31T09:29:18.441Z,22.80
2018-07-31T09:31:47.757Z,22.90
2018-07-31T09:34:17.229Z,22.90
2018-07-31T09:36:46.531Z,22.60
2018-07-31T09:39:16.064Z,22.10
2018-07-31T09:41:45.130Z,22.30
2018-07-31T09:44:14.110Z,22.50
2018-07-31T09:46:43.202Z,23.10
2018-07-31T09:49:12.579Z,22.70
2018-07-31T09:51:41.566Z,22.90
2018-07-31T09:54:10.634Z,23.40
2018-07-31T09:56:39.892Z,24.10
2018-07-31T09:59:08.856Z,24.00
2018-07-31T10:01:37.925Z,24.20
2018-07-31T10:04:06.951Z,24.80
2018-07-31T10:06:36.154Z,24.60
2018-07-31T10:09:08.478Z,23.80
2018-07-31T10:11:37.710Z,23.40
2018-07-31T10:14:06.693Z,23.20
2018-07-31T10:16:35.909Z,23.20
2018-07-31T10:19:05.457Z,23.10
2018-07-31T10:21:34.482Z,23.00
2018-07-31T10:24:04.333Z,22.70
2018-07-31T10:26:33.438Z,22.20
2018-07-31T10:29:02.645Z,21.70
2018-07-31T10:31:32.103Z,22.40
2018-07-31T10:34:01.396Z,22.20
2018-07-31T10:36:30.748Z,22.50
2018-07-31T10:39:00.029Z,22.80
2018-07-31T10:41:29.080Z,22.90
2018-07-31T10:43:58.099Z,23.20
2018-07-31T10:46:27.220Z,23.30
2018-07-31T10:48:56.552Z,23.70
2018-07-31T10:51:25.684Z,23.70
2018-07-31T10:53:54.787Z,23.70
2018-07-31T10:56:23.916Z,23.70
2018-07-31T11:01:21.413Z,22.40
2018-07-31T11:03:50.595Z,21.90
2018-07-31T11:06:19.718Z,21.60
2018-07-31T11:08:48.730Z,21.70
2018-07-31T11:11:17.841Z,22.30
2018-07-31T11:13:47.264Z,22.20
2018-07-31T11:16:16.327Z,22.60
2018-07-31T11:18:45.445Z,23.50
2018-07-31T11:21:14.539Z,24.00
2018-07-31T11:23:43.602Z,24.90
2018-07-31T11:26:12.677Z,26.00
2018-07-31T11:28:41.933Z,26.60
2018-07-31T11:31:11.008Z,27.10
2018-07-31T11:33:40.044Z,27.60
2018-07-31T11:36:09.094Z,28.50
2018-07-31T11:38:38.170Z,28.20
2018-07-31T11:41:07.236Z,28.30
2018-07-31T11:43:36.646Z,28.30
2018-07-31T11:46:05.883Z,28.80
2018-07-31T11:48:35.028Z,28.40
2018-07-31T11:51:04.180Z,28.60
2018-07-31T11:56:01.785Z,29.10
2018-07-31T11:58:30.964Z,29.00
2018-07-31T12:01:00.038Z,29.30
2018-07-31T12:03:29.103Z,29.30
2018-07-31T12:05:58.425Z,29.50
2018-07-31T12:08:27.627Z,29.90
2018-07-31T12:10:56.902Z,29.80
2018-07-31T12:13:25.942Z,29.90
2018-07-31T12:15:55.036Z,29.80
2018-07-31T12:18:24.373Z,30.00
2018-07-31T12:20:53.986Z,30.10
2018-07-31T12:23:23.699Z,30.00
2018-07-31T12:25:52.659Z,30.00
2018-07-31T12:28:23.468Z,30.30
2018-07-31T12:30:52.961Z,30.40
2018-07-31T12:33:22.492Z,30.00
2018-07-31T12:35:52.516Z,30.00
2018-07-31T12:38:22.078Z,30.10
2018-07-31T12:40:51.157Z,30.10
2018-07-31T12:43:20.215Z,30.00
2018-07-31T12:45:49.285Z,30.40
2018-07-31T12:48:18.288Z,30.70
2018-07-31T12:50:47.402Z,31.00
2018-07-31T12:53:16.751Z,31.40
2018-07-31T12:55:45.922Z,31.40
2018-07-31T12:58:14.956Z,31.40
2018-07-31T13:00:44.211Z,31.30
2018-07-31T13:03:13.258Z,31.40
2018-07-31T13:05:42.634Z,31.30
2018-07-31T13:08:11.781Z,31.30
2018-07-31T13:10:40.857Z,31.50
2018-07-31T13:13:09.899Z,31.40
2018-07-31T13:15:39.218Z,31.40
2018-07-31T13:20:37.169Z,31.80
2018-07-31T13:23:06.246Z,31.60
2018-07-31T13:38:35.047Z,32.20
2018-07-31T13:41:04.119Z,31.60
2018-07-31T13:43:33.185Z,32.10
2018-07-31T13:46:02.350Z,32.20
2018-07-31T13:48:31.404Z,32.00
2018-07-31T13:51:00.604Z,32.00
2018-07-31T13:53:29.684Z,31.90
2018-07-31T13:55:58.902Z,31.90
2018-07-31T13:58:28.237Z,31.30
2018-07-31T14:00:57.490Z,31.10
2018-07-31T14:03:26.400Z,31.20
2018-07-31T14:05:55.549Z,31.20
2018-07-31T14:08:24.629Z,31.20
2018-07-31T14:10:53.851Z,31.50
2018-07-31T14:13:23.123Z,31.70
2018-07-31T14:15:52.339Z,31.80
2018-07-31T14:18:21.558Z,31.80
2018-07-31T14:20:50.941Z,31.90
2018-07-31T14:23:20.977Z,31.90
2018-07-31T14:25:50.150Z,32.10
2018-07-31T14:28:19.593Z,32.00
2018-07-31T14:30:48.960Z,32.00
2018-07-31T14:33:18.181Z,31.90
2018-07-31T14:35:47.186Z,32.20
2018-07-31T14:38:16.543Z,32.60
2018-07-31T14:43:14.637Z,31.80
2018-07-31T14:45:44.420Z,31.70
2018-07-31T14:48:13.933Z,31.80
2018-07-31T14:50:43.236Z,31.40
2018-07-31T14:53:12.727Z,31.10
2018-07-31T14:55:42.076Z,31.00
2018-07-31T14:58:11.242Z,31.10
2018-07-31T15:00:40.440Z,31.30
2018-07-31T15:03:09.803Z,30.70
2018-07-31T15:05:39.011Z,30.50
2018-07-31T15:08:08.104Z,29.80
2018-07-31T15:10:37.168Z,29.80
2018-07-31T15:13:06.192Z,29.70
2018-07-31T15:15:35.419Z,29.40
2018-07-31T15:18:04.613Z,29.60
2018-07-31T15:20:33.609Z,29.40
2018-07-31T15:23:02.976Z,29.70
2018-07-31T15:25:32.641Z,29.70
2018-07-31T15:28:01.882Z,29.90
2018-07-31T15:30:32.560Z,30.10
2018-07-31T15:33:01.928Z,30.00
2018-07-31T15:35:31.256Z,30.20
2018-07-31T15:38:02.005Z,29.60
2018-07-31T15:40:31.271Z,29.70
2018-07-31T15:43:00.261Z,29.70
2018-07-31T15:45:29.669Z,29.60
2018-07-31T15:47:58.923Z,29.30
2018-07-31T15:50:28.641Z,29.10
2018-07-31T15:52:57.922Z,28.90
2018-07-31T15:55:27.062Z,29.00
2018-07-31T15:57:56.370Z,29.30
2018-07-31T16:00:25.592Z,29.10
2018-07-31T16:02:54.971Z,29.40
2018-07-31T16:05:24.643Z,29.10
2018-07-31T16:07:53.779Z,29.20
2018-07-31T16:10:23.061Z,29.30
2018-07-31T16:12:52.478Z,28.80
2018-07-31T16:15:21.551Z,28.90
2018-07-31T16:17:50.598Z,29.00
2018-07-31T16:20:19.997Z,29.20
2018-07-31T16:22:49.367Z,29.10
2018-07-31T16:25:18.472Z,28.80
2018-07-31T16:27:47.984Z,28.50
2018-07-31T16:30:17.236Z,28.90
2018-07-31T16:32:46.326Z,28.90
2018-07-31T16:35:15.410Z,28.70
2018-07-31T16:37:44.501Z,28.70
2018-07-31T16:40:13.611Z,28.60
2018-07-31T16:42:43.086Z,28.70
2018-07-31T16:45:12.601Z,28.90
2018-07-31T16:47:41.706Z,29.30
2018-07-31T16:50:11.018Z,28.90
2018-07-31T16:52:40.306Z,28.80
2018-07-31T16:55:09.504Z,28.80
2018-07-31T16:57:38.943Z,28.80
2018-07-31T17:02:37.105Z,28.40
2018-07-31T17:05:06.202Z,28.30
2018-07-31T17:07:35.385Z,28.00
2018-07-31T17:10:04.626Z,27.90
2018-07-31T17:12:33.707Z,27.90
2018-07-31T17:15:03.069Z,27.90
2018-07-31T17:17:32.180Z,28.10
2018-07-31T17:20:01.300Z,28.20
2018-07-31T17:22:30.461Z,28.40
2018-07-31T17:24:59.794Z,28.60
2018-07-31T17:27:28.905Z,28.60
2018-07-31T17:29:58.165Z,29.10
2018-07-31T17:32:27.254Z,29.30
2018-07-31T17:34:56.459Z,29.80
2018-07-31T17:37:25.765Z,30.00
2018-07-31T17:39:55.148Z,30.20
2018-07-31T17:42:25.067Z,30.50
2018-07-31T17:44:54.148Z,30.90
2018-07-31T17:47:23.279Z,31.00
2018-07-31T17:49:52.347Z,31.00
2018-07-31T17:52:21.597Z,31.00
2018-07-31T17:54:51.030Z,31.20
2018-07-31T17:57:20.250Z,31.10
2018-07-31T17:59:49.600Z,31.30
2018-07-31T18:02:18.865Z,31.60
2018-07-31T18:04:47.787Z,31.70
2018-07-31T18:07:17.064Z,32.10
2018-07-31T18:09:46.333Z,32.90
2018-07-31T18:12:15.608Z,33.50
2018-07-31T18:14:45.135Z,33.90
2018-07-31T18:17:14.709Z,34.20
2018-07-31T18:19:43.796Z,34.30
2018-07-31T18:22:13.618Z,34.70
2018-07-31T18:24:42.994Z,35.60
2018-07-31T18:27:12.651Z,35.30
2018-07-31T18:29:42.079Z,35.70
2018-07-31T18:32:11.161Z,35.90
2018-07-31T18:34:40.422Z,36.10
2018-07-31T18:37:09.552Z,36.30
2018-07-31T18:39:38.594Z,36.70
2018-07-31T18:42:07.686Z,37.30
2018-07-31T18:44:37.225Z,38.00
2018-07-31T18:47:06.745Z,38.70
2018-07-31T18:49:35.928Z,39.00
2018-07-31T18:52:05.144Z,39.40
2018-07-31T18:54:34.313Z,39.70
2018-07-31T18:57:03.617Z,40.10
2018-07-31T18:59:32.615Z,40.30
2018-07-31T19:02:01.719Z,40.50
2018-07-31T19:04:31.007Z,40.80
2018-07-31T19:07:00.200Z,40.90
2018-07-31T19:09:29.640Z,41.90
2018-07-31T19:11:59.222Z,41.40
2018-07-31T19:14:28.337Z,41.80
2018-07-31T19:16:57.388Z,42.00
2018-07-31T19:19:26.609Z,42.30
2018-07-31T19:21:55.762Z,42.40
2018-07-31T19:24:24.775Z,42.80
2018-07-31T19:26:53.860Z,43.00
2018-07-31T19:29:23.156Z,43.80
2018-07-31T19:31:52.142Z,43.50
2018-07-31T19:34:21.239Z,43.70
2018-07-31T19:36:50.438Z,43.90
2018-07-31T19:39:19.693Z,44.00
2018-07-31T19:41:49.549Z,44.30
2018-07-31T19:44:18.805Z,44.40
2018-07-31T19:46:48.074Z,44.70
2018-07-31T19:49:17.246Z,44.80
2018-07-31T19:51:46.416Z,45.00
2018-07-31T19:54:15.745Z,45.10
2018-07-31T19:56:45.029Z,45.20
2018-07-31T19:59:14.142Z,45.40
2018-07-31T20:01:43.337Z,45.50
2018-07-31T20:04:13.149Z,45.50
2018-07-31T20:06:42.281Z,45.70
2018-07-31T20:14:13.383Z,46.30
2018-07-31T20:16:42.660Z,46.40
2018-07-31T20:19:12.033Z,46.50
2018-07-31T20:21:41.393Z,46.60
2018-07-31T20:24:11.005Z,47.40
2018-07-31T20:26:40.572Z,47.00
2018-07-31T20:29:10.038Z,47.00
2018-07-31T20:31:39.941Z,47.10
2018-07-31T20:34:09.243Z,47.00
2018-07-31T20:36:38.753Z,47.20
2018-07-31T20:39:09.491Z,47.20
2018-07-31T20:41:39.393Z,47.50
2018-07-31T20:44:09.365Z,47.60
2018-07-31T20:46:38.690Z,47.70
2018-07-31T20:49:08.193Z,47.80
2018-07-31T20:51:37.400Z,47.60
2018-07-31T21:07:06.101Z,47.50
2018-07-31T21:09:35.371Z,47.60
2018-07-31T21:12:04.474Z,49.20
2018-07-31T21:14:33.663Z,49.30
2018-07-31T21:17:03.633Z,49.20
2018-07-31T21:19:32.937Z,48.80
2018-07-31T21:22:02.170Z,49.00
2018-07-31T21:24:31.782Z,49.00
2018-07-31T21:27:00.751Z,49.10
2018-07-31T21:29:30.113Z,48.90
2018-07-31T21:31:59.452Z,48.80
2018-07-31T21:34:28.495Z,48.90
2018-07-31T21:36:57.541Z,48.90
2018-07-31T21:52:30.932Z,49.00
2018-07-31T21:54:59.957Z,48.80
2018-07-31T21:57:28.898Z,48.90
2018-07-31T21:59:58.907Z,48.80
2018-07-31T22:02:28.019Z,48.70
2018-07-31T22:04:56.985Z,48.60
2018-07-31T22:07:26.264Z,49.00
2018-07-31T22:09:55.809Z,48.30
2018-07-31T22:12:25.175Z,48.10
2018-07-31T22:14:54.592Z,48.20
2018-07-31T22:17:23.783Z,48.10
2018-07-31T22:19:53.023Z,48.00
2018-07-31T22:22:22.135Z,47.90
2018-07-31T22:24:51.370Z,48.50
2018-07-31T22:27:20.613Z,48.20
2018-07-31T22:29:49.574Z,48.10
2018-07-31T22:32:19.172Z,48.10
2018-07-31T22:34:48.702Z,48.20
2018-07-31T22:37:18.175Z,48.50
2018-07-31T22:42:22.160Z,48.40
2018-07-31T22:44:51.323Z,48.30
2018-07-31T22:47:20.637Z,48.20
2018-07-31T22:49:49.838Z,48.50
2018-07-31T22:52:18.876Z,48.50
2018-07-31T22:54:47.973Z,48.70
2018-07-31T22:57:17.185Z,48.70
2018-07-31T22:59:46.131Z,48.80
2018-07-31T23:02:15.538Z,48.90
2018-07-31T23:04:44.480Z,49.00
2018-07-31T23:07:13.458Z,49.10
2018-07-31T23:09:43.099Z,49.20
2018-07-31T23:12:12.361Z,49.20
2018-07-31T23:14:41.357Z,49.40
2018-07-31T23:17:10.577Z,49.50
2018-07-31T23:19:39.599Z,49.50
2018-07-31T23:22:08.751Z,49.60
2018-07-31T23:24:37.960Z,49.90
2018-07-31T23:29:36.658Z,50.00
2018-07-31T23:32:05.874Z,50.20
2018-07-31T23:34:35.231Z,50.30
2018-07-31T23:37:04.201Z,50.40
2018-07-31T23:39:33.328Z,50.40
2018-07-31T23:42:02.395Z,50.60
2018-07-31T23:44:31.612Z,50.60
2018-07-31T23:47:00.611Z,50.60
2018-07-31T23:49:29.757Z,50.70
2018-07-31T23:51:58.957Z,50.90
2018-07-31T23:54:28.378Z,51.10
2018-07-31T23:56:58.343Z,51.20
2018-07-31T23:59:27.480Z,51.60
